sensor_id;sensor_type;location;lat;lon;timestamp;pressure;altitude;pressure_sealevel;temperature;humidity
18509;BME280;9383;50.928;12.116;2023-08-06T00:00:54;98018.63;;;16.34;96.20
18509;BME280;9383;50.928;12.116;2023-08-06T00:03:25;98018.72;;;16.33;96.15
18509;BME280;9383;50.928;12.116;2023-08-06T00:06:00;98014.34;;;16.31;96.11
18509;BME280;9383;50.928;12.116;2023-08-06T00:08:31;98018.88;;;16.31;96.23
18509;BME280;9383;50.928;12.116;2023-08-06T00:11:04;98013.63;;;16.29;96.35
18509;BME280;9383;50.928;12.116;2023-08-06T00:13:38;98014.59;;;16.28;96.84
18509;BME280;9383;50.928;12.116;2023-08-06T00:16:13;98015.56;;;16.27;96.89
18509;BME280;9383;50.928;12.116;2023-08-06T00:18:42;98006.66;;;16.27;97.09
18509;BME280;9383;50.928;12.116;2023-08-06T00:21:16;98000.34;;;16.28;97.69
18509;BME280;9383;50.928;12.116;2023-08-06T00:23:45;97991.47;;;16.27;98.10
18509;BME280;9383;50.928;12.116;2023-08-06T00:26:15;98001.31;;;16.27;98.11
18509;BME280;9383;50.928;12.116;2023-08-06T00:28:43;98001.44;;;16.25;98.07
18509;BME280;9383;50.928;12.116;2023-08-06T00:31:12;97995.22;;;16.25;98.24
18509;BME280;9383;50.928;12.116;2023-08-06T00:33:45;97989.25;;;16.21;98.29
18509;BME280;9383;50.928;12.116;2023-08-06T00:36:19;97994.84;;;16.18;98.53
18509;BME280;9383;50.928;12.116;2023-08-06T00:38:50;97995.81;;;16.17;98.73
18509;BME280;9383;50.928;12.116;2023-08-06T00:41:19;98000.41;;;16.15;98.59
18509;BME280;9383;50.928;12.116;2023-08-06T00:43:51;98000.50;;;16.13;98.39
18509;BME280;9383;50.928;12.116;2023-08-06T00:46:19;97999.03;;;16.09;97.91
18509;BME280;9383;50.928;12.116;2023-08-06T00:48:47;97997.53;;;16.05;97.31
18509;BME280;9383;50.928;12.116;2023-08-06T00:51:14;97994.34;;;16.00;96.95
18509;BME280;9383;50.928;12.116;2023-08-06T00:53:48;97988.28;;;15.98;96.98
18509;BME280;9383;50.928;12.116;2023-08-06T00:56:20;97978.78;;;15.94;96.43
18509;BME280;9383;50.928;12.116;2023-08-06T00:58:52;97970.97;;;15.91;96.33
18509;BME280;9383;50.928;12.116;2023-08-06T01:01:24;97969.44;;;15.86;96.19
18509;BME280;9383;50.928;12.116;2023-08-06T01:03:55;97973.31;;;15.82;95.97
18509;BME280;9383;50.928;12.116;2023-08-06T01:15:12;97957.94;;;15.73;95.74
18509;BME280;9383;50.928;12.116;2023-08-06T01:17:45;97962.31;;;15.74;95.60
18509;BME280;9383;50.928;12.116;2023-08-06T01:20:16;97959.56;;;15.75;95.54
18509;BME280;9383;50.928;12.116;2023-08-06T01:22:47;97963.06;;;15.76;95.46
18509;BME280;9383;50.928;12.116;2023-08-06T01:25:17;97967.44;;;15.77;95.33
18509;BME280;9383;50.928;12.116;2023-08-06T01:27:49;97964.03;;;15.75;95.34
18509;BME280;9383;50.928;12.116;2023-08-06T01:30:30;97957.09;;;15.72;95.27
18509;BME280;9383;50.928;12.116;2023-08-06T01:33:12;97956.25;;;15.72;95.26
18509;BME280;9383;50.928;12.116;2023-08-06T01:35:43;97961.59;;;15.72;95.07
18509;BME280;9383;50.928;12.116;2023-08-06T01:38:16;97960.84;;;15.70;95.02
18509;BME280;9383;50.928;12.116;2023-08-06T01:40:46;97952.84;;;15.70;95.21
18509;BME280;9383;50.928;12.116;2023-08-06T01:43:22;97944.09;;;15.68;95.34
18509;BME280;9383;50.928;12.116;2023-08-06T01:45:54;97941.41;;;15.68;95.35
18509;BME280;9383;50.928;12.116;2023-08-06T01:48:23;97944.41;;;15.63;95.46
18509;BME280;9383;50.928;12.116;2023-08-06T01:50:53;97943.63;;;15.61;95.59
18509;BME280;9383;50.928;12.116;2023-08-06T01:53:21;97941.09;;;15.59;95.44
18509;BME280;9383;50.928;12.116;2023-08-06T01:55:52;97932.22;;;15.59;95.62
18509;BME280;9383;50.928;12.116;2023-08-06T01:58:19;97933.19;;;15.58;95.53
18509;BME280;9383;50.928;12.116;2023-08-06T02:00:46;97935.03;;;15.57;95.73
18509;BME280;9383;50.928;12.116;2023-08-06T02:03:13;97928.81;;;15.57;95.64
18509;BME280;9383;50.928;12.116;2023-08-06T02:05:42;97927.97;;;15.56;95.86
18509;BME280;9383;50.928;12.116;2023-08-06T02:08:13;97925.41;;;15.55;95.82
18509;BME280;9383;50.928;12.116;2023-08-06T02:10:42;97927.34;;;15.53;95.72
18509;BME280;9383;50.928;12.116;2023-08-06T02:13:11;97926.59;;;15.51;95.64
18509;BME280;9383;50.928;12.116;2023-08-06T02:15:43;97915.03;;;15.50;95.81
18509;BME280;9383;50.928;12.116;2023-08-06T02:18:13;97909.84;;;15.49;95.80
18509;BME280;9383;50.928;12.116;2023-08-06T02:20:42;97906.38;;;15.46;95.86
18509;BME280;9383;50.928;12.116;2023-08-06T02:23:10;97900.22;;;15.46;95.81
18509;BME280;9383;50.928;12.116;2023-08-06T02:25:39;97904.81;;;15.44;96.03
18509;BME280;9383;50.928;12.116;2023-08-06T02:28:08;97903.09;;;15.43;96.24
18509;BME280;9383;50.928;12.116;2023-08-06T02:30:38;97899.66;;;15.41;96.22
18509;BME280;9383;50.928;12.116;2023-08-06T02:33:05;97890.09;;;15.38;96.26
18509;BME280;9383;50.928;12.116;2023-08-06T02:35:36;97892.03;;;15.36;96.55
18509;BME280;9383;50.928;12.116;2023-08-06T02:38:06;97894.78;;;15.35;96.50
18509;BME280;9383;50.928;12.116;2023-08-06T02:40:46;97892.13;;;15.35;96.56
18509;BME280;9383;50.928;12.116;2023-08-06T02:43:18;97893.09;;;15.33;96.67
18509;BME280;9383;50.928;12.116;2023-08-06T02:45:47;97892.34;;;15.31;96.67
18509;BME280;9383;50.928;12.116;2023-08-06T02:48:14;97895.00;;;15.31;96.83
18509;BME280;9383;50.928;12.116;2023-08-06T02:50:45;97889.66;;;15.31;96.74
18509;BME280;9383;50.928;12.116;2023-08-06T02:53:18;97890.75;;;15.29;96.88
18509;BME280;9383;50.928;12.116;2023-08-06T02:55:48;97880.06;;;15.29;96.99
18509;BME280;9383;50.928;12.116;2023-08-06T02:58:18;97887.19;;;15.28;97.17
18509;BME280;9383;50.928;12.116;2023-08-06T03:01:01;97886.47;;;15.26;97.08
18509;BME280;9383;50.928;12.116;2023-08-06T03:03:31;97881.25;;;15.25;97.08
18509;BME280;9383;50.928;12.116;2023-08-06T03:06:02;97880.38;;;15.24;97.21
18509;BME280;9383;50.928;12.116;2023-08-06T03:08:32;97883.16;;;15.23;97.24
18509;BME280;9383;50.928;12.116;2023-08-06T03:11:06;97877.81;;;15.23;97.31
18509;BME280;9383;50.928;12.116;2023-08-06T03:13:35;97884.97;;;15.22;97.41
18509;BME280;9383;50.928;12.116;2023-08-06T03:16:05;97881.56;;;15.20;97.45
18509;BME280;9383;50.928;12.116;2023-08-06T03:18:34;97876.34;;;15.18;97.39
18509;BME280;9383;50.928;12.116;2023-08-06T03:21:05;97879.88;;;15.19;97.39
18509;BME280;9383;50.928;12.116;2023-08-06T03:23:37;97876.47;;;15.17;97.35
18509;BME280;9383;50.928;12.116;2023-08-06T03:26:09;97875.59;;;15.16;97.68
18509;BME280;9383;50.928;12.116;2023-08-06T03:28:42;97874.72;;;15.16;97.81
18509;BME280;9383;50.928;12.116;2023-08-06T03:31:13;97877.53;;;15.14;97.93
18509;BME280;9383;50.928;12.116;2023-08-06T03:33:42;97880.28;;;15.13;98.04
18509;BME280;9383;50.928;12.116;2023-08-06T03:36:13;97882.13;;;15.12;98.26
18509;BME280;9383;50.928;12.116;2023-08-06T03:38:45;97881.34;;;15.10;98.55
18509;BME280;9383;50.928;12.116;2023-08-06T03:41:15;97878.81;;;15.09;98.77
18509;BME280;9383;50.928;12.116;2023-08-06T03:43:47;97878.91;;;15.07;98.92
18509;BME280;9383;50.928;12.116;2023-08-06T03:46:18;97881.69;;;15.05;99.15
18509;BME280;9383;50.928;12.116;2023-08-06T03:48:47;97880.00;;;15.04;99.40
18509;BME280;9383;50.928;12.116;2023-08-06T03:51:16;97875.59;;;15.03;99.68
18509;BME280;9383;50.928;12.116;2023-08-06T03:53:44;97861.50;;;15.01;99.99
18509;BME280;9383;50.928;12.116;2023-08-06T03:56:15;97869.50;;;15.01;99.89
18509;BME280;9383;50.928;12.116;2023-08-06T03:58:45;97862.47;;;15.00;100.00
18509;BME280;9383;50.928;12.116;2023-08-06T04:01:17;97859.06;;;14.98;100.00
18509;BME280;9383;50.928;12.116;2023-08-06T04:03:45;97856.41;;;14.98;100.00
18509;BME280;9383;50.928;12.116;2023-08-06T04:06:14;97857.38;;;14.97;100.00
18509;BME280;9383;50.928;12.116;2023-08-06T04:08:45;97856.50;;;14.97;100.00
18509;BME280;9383;50.928;12.116;2023-08-06T04:11:15;97849.44;;;14.96;100.00
18509;BME280;9383;50.928;12.116;2023-08-06T04:13:46;97845.09;;;14.95;100.00
18509;BME280;9383;50.928;12.116;2023-08-06T04:16:17;97849.59;;;14.94;100.00
18509;BME280;9383;50.928;12.116;2023-08-06T04:18:47;97842.53;;;14.93;100.00
18509;BME280;9383;50.928;12.116;2023-08-06T04:21:15;97842.53;;;14.93;100.00
18509;BME280;9383;50.928;12.116;2023-08-06T04:23:47;97837.41;;;14.90;100.00
18509;BME280;9383;50.928;12.116;2023-08-06T04:26:21;97829.41;;;14.90;100.00
18509;BME280;9383;50.928;12.116;2023-08-06T04:28:48;97839.31;;;14.88;100.00
18509;BME280;9383;50.928;12.116;2023-08-06T04:31:20;97842.00;;;14.88;100.00
18509;BME280;9383;50.928;12.116;2023-08-06T04:33:53;97839.31;;;14.88;100.00
18509;BME280;9383;50.928;12.116;2023-08-06T04:36:25;97842.00;;;14.88;100.00
18509;BME280;9383;50.928;12.116;2023-08-06T04:38:57;97831.44;;;14.86;100.00
18509;BME280;9383;50.928;12.116;2023-08-06T04:41:28;97829.63;;;14.87;100.00
18509;BME280;9383;50.928;12.116;2023-08-06T04:44:00;97829.63;;;14.87;100.00
18509;BME280;9383;50.928;12.116;2023-08-06T04:46:27;97826.94;;;14.87;100.00
18509;BME280;9383;50.928;12.116;2023-08-06T04:48:56;97828.78;;;14.86;100.00
18509;BME280;9383;50.928;12.116;2023-08-06T04:51:27;97818.09;;;14.86;100.00
18509;BME280;9383;50.928;12.116;2023-08-06T04:53:58;97815.44;;;14.86;100.00
18509;BME280;9383;50.928;12.116;2023-08-06T04:56:28;97814.47;;;14.87;100.00
18509;BME280;9383;50.928;12.116;2023-08-06T04:58:58;97817.97;;;14.88;100.00
18509;BME280;9383;50.928;12.116;2023-08-06T05:01:29;97815.22;;;14.89;100.00
18509;BME280;9383;50.928;12.116;2023-08-06T05:04:01;97816.06;;;14.90;100.00
18509;BME280;9383;50.928;12.116;2023-08-06T05:06:31;97815.00;;;14.93;100.00
18509;BME280;9383;50.928;12.116;2023-08-06T05:09:01;97821.19;;;14.93;100.00
18509;BME280;9383;50.928;12.116;2023-08-06T05:11:33;97812.22;;;14.94;100.00
18509;BME280;9383;50.928;12.116;2023-08-06T05:14:01;97812.97;;;14.96;100.00
18509;BME280;9383;50.928;12.116;2023-08-06T05:16:33;97810.16;;;14.98;100.00
18509;BME280;9383;50.928;12.116;2023-08-06T05:19:01;97814.56;;;14.99;100.00
18509;BME280;9383;50.928;12.116;2023-08-06T05:21:33;97806.44;;;15.00;100.00
18509;BME280;9383;50.928;12.116;2023-08-06T05:24:06;97806.34;;;15.02;100.00
18509;BME280;9383;50.928;12.116;2023-08-06T05:26:34;97809.84;;;15.02;100.00
18509;BME280;9383;50.928;12.116;2023-08-06T05:29:06;97808.88;;;15.03;100.00
18509;BME280;9383;50.928;12.116;2023-08-06T05:31:34;97814.13;;;15.05;100.00
18509;BME280;9383;50.928;12.116;2023-08-06T05:34:08;97818.38;;;15.08;100.00
18509;BME280;9383;50.928;12.116;2023-08-06T05:36:39;97804.06;;;15.09;100.00
18509;BME280;9383;50.928;12.116;2023-08-06T05:39:09;97807.59;;;15.09;100.00
18509;BME280;9383;50.928;12.116;2023-08-06T05:41:40;97806.63;;;15.10;100.00
18509;BME280;9383;50.928;12.116;2023-08-06T05:44:10;97803.84;;;15.12;100.00
18509;BME280;9383;50.928;12.116;2023-08-06T05:46:40;97801.09;;;15.13;100.00
18509;BME280;9383;50.928;12.116;2023-08-06T05:49:19;97791.97;;;15.16;100.00
18509;BME280;9383;50.928;12.116;2023-08-06T05:51:51;97784.75;;;15.18;100.00
18509;BME280;9383;50.928;12.116;2023-08-06T05:54:27;97788.16;;;15.20;100.00
18509;BME280;9383;50.928;12.116;2023-08-06T05:57:03;97787.91;;;15.23;100.00
18509;BME280;9383;50.928;12.116;2023-08-06T05:59:31;97797.53;;;15.26;100.00
18509;BME280;9383;50.928;12.116;2023-08-06T06:02:10;97791.94;;;15.29;100.00
18509;BME280;9383;50.928;12.116;2023-08-06T06:04:42;97793.56;;;15.31;100.00
18509;BME280;9383;50.928;12.116;2023-08-06T06:07:16;97781.78;;;15.34;100.00
18509;BME280;9383;50.928;12.116;2023-08-06T06:09:51;97778.91;;;15.37;100.00
18509;BME280;9383;50.928;12.116;2023-08-06T06:12:25;97778.53;;;15.42;100.00
18509;BME280;9383;50.928;12.116;2023-08-06T06:14:53;97782.81;;;15.44;100.00
18509;BME280;9383;50.928;12.116;2023-08-06T06:17:28;97771.06;;;15.47;100.00
18509;BME280;9383;50.928;12.116;2023-08-06T06:20:03;97777.03;;;15.51;100.00
18509;BME280;9383;50.928;12.116;2023-08-06T06:22:39;97774.13;;;15.54;100.00
18509;BME280;9383;50.928;12.116;2023-08-06T06:25:25;97773.06;;;15.56;100.00
18509;BME280;9383;50.928;12.116;2023-08-06T06:27:55;97784.47;;;15.58;100.00
18509;BME280;9383;50.928;12.116;2023-08-06T06:30:26;97770.00;;;15.61;100.00
18509;BME280;9383;50.928;12.116;2023-08-06T06:32:53;97775.97;;;15.65;100.00
18509;BME280;9383;50.928;12.116;2023-08-06T06:35:26;97767.88;;;15.66;100.00
18509;BME280;9383;50.928;12.116;2023-08-06T06:37:54;97766.66;;;15.70;100.00
18509;BME280;9383;50.928;12.116;2023-08-06T06:40:26;97769.97;;;15.74;100.00
18509;BME280;9383;50.928;12.116;2023-08-06T06:42:59;97766.06;;;15.78;100.00
18509;BME280;9383;50.928;12.116;2023-08-06T06:45:28;97771.22;;;15.81;100.00
18509;BME280;9383;50.928;12.116;2023-08-06T06:48:02;97771.94;;;15.83;100.00
18509;BME280;9383;50.928;12.116;2023-08-06T06:50:36;97770.72;;;15.87;100.00
18509;BME280;9383;50.928;12.116;2023-08-06T06:53:07;97768.06;;;15.87;100.00
18509;BME280;9383;50.928;12.116;2023-08-06T06:55:44;97774.91;;;15.92;100.00
18509;BME280;9383;50.928;12.116;2023-08-06T06:58:20;97772.00;;;15.95;100.00
18509;BME280;9383;50.928;12.116;2023-08-06T07:00:53;97770.06;;;15.97;100.00
18509;BME280;9383;50.928;12.116;2023-08-06T07:03:30;97769.00;;;15.99;100.00
18509;BME280;9383;50.928;12.116;2023-08-06T07:06:01;97766.91;;;16.03;100.00
18509;BME280;9383;50.928;12.116;2023-08-06T07:08:37;97767.78;;;16.03;100.00
18509;BME280;9383;50.928;12.116;2023-08-06T07:11:07;97756.00;;;16.06;100.00
18509;BME280;9383;50.928;12.116;2023-08-06T07:13:37;97763.78;;;16.09;100.00
18509;BME280;9383;50.928;12.116;2023-08-06T07:16:10;97762.56;;;16.13;100.00
18509;BME280;9383;50.928;12.116;2023-08-06T07:18:38;97771.31;;;16.15;100.00
18509;BME280;9383;50.928;12.116;2023-08-06T07:21:07;97767.31;;;16.21;100.00
18509;BME280;9383;50.928;12.116;2023-08-06T07:23:36;97762.59;;;16.25;100.00
18509;BME280;9383;50.928;12.116;2023-08-06T07:26:08;97760.53;;;16.28;100.00
18509;BME280;9383;50.928;12.116;2023-08-06T07:28:43;97759.22;;;16.34;100.00
18509;BME280;9383;50.928;12.116;2023-08-06T07:31:13;97758.97;;;16.37;100.00
18509;BME280;9383;50.928;12.116;2023-08-06T07:33:44;97761.19;;;16.43;100.00
18509;BME280;9383;50.928;12.116;2023-08-06T07:36:15;97763.47;;;16.48;100.00
18509;BME280;9383;50.928;12.116;2023-08-06T07:38:49;97757.75;;;16.53;100.00
18509;BME280;9383;50.928;12.116;2023-08-06T07:41:25;97761.91;;;16.57;100.00
18509;BME280;9383;50.928;12.116;2023-08-06T07:43:58;97759.81;;;16.60;100.00
18509;BME280;9383;50.928;12.116;2023-08-06T07:46:29;97760.59;;;16.63;99.81
18509;BME280;9383;50.928;12.116;2023-08-06T07:48:59;97758.50;;;16.66;99.40
18509;BME280;9383;50.928;12.116;2023-08-06T07:51:29;97759.97;;;16.70;99.15
18509;BME280;9383;50.928;12.116;2023-08-06T07:54:00;97767.75;;;16.73;99.00
18509;BME280;9383;50.928;12.116;2023-08-06T07:56:27;97767.38;;;16.78;98.49
18509;BME280;9383;50.928;12.116;2023-08-06T07:58:56;97766.03;;;16.84;98.57
18509;BME280;9383;50.928;12.116;2023-08-06T08:01:25;97756.69;;;16.90;98.47
18509;BME280;9383;50.928;12.116;2023-08-06T08:03:53;97750.81;;;16.96;98.07
18509;BME280;9383;50.928;12.116;2023-08-06T08:06:24;97752.06;;;17.03;98.09
18509;BME280;9383;50.928;12.116;2023-08-06T08:08:56;97753.97;;;17.12;98.08
18509;BME280;9383;50.928;12.116;2023-08-06T08:11:27;97749.72;;;17.21;97.83
18509;BME280;9383;50.928;12.116;2023-08-06T08:13:56;97744.56;;;17.29;97.33
18509;BME280;9383;50.928;12.116;2023-08-06T08:16:29;97740.41;;;17.37;97.23
18509;BME280;9383;50.928;12.116;2023-08-06T08:19:03;97727.25;;;17.45;96.60
18509;BME280;9383;50.928;12.116;2023-08-06T08:21:31;97730.97;;;17.54;96.44
18509;BME280;9383;50.928;12.116;2023-08-06T08:24:08;97730.78;;;17.67;96.15
18509;BME280;9383;50.928;12.116;2023-08-06T08:26:43;97721.72;;;17.79;95.88
18509;BME280;9383;50.928;12.116;2023-08-06T08:29:13;97729.09;;;17.87;94.74
18509;BME280;9383;50.928;12.116;2023-08-06T08:31:51;97729.59;;;17.92;92.40
18509;BME280;9383;50.928;12.116;2023-08-06T08:34:24;97718.47;;;17.97;91.99
18509;BME280;9383;50.928;12.116;2023-08-06T08:37:02;97719.53;;;18.06;91.74
18509;BME280;9383;50.928;12.116;2023-08-06T08:39:36;97722.16;;;18.17;91.86
18509;BME280;9383;50.928;12.116;2023-08-06T08:42:07;97722.09;;;18.28;91.77
18509;BME280;9383;50.928;12.116;2023-08-06T08:44:44;97714.66;;;18.42;91.84
18509;BME280;9383;50.928;12.116;2023-08-06T08:47:17;97717.25;;;18.53;91.10
18509;BME280;9383;50.928;12.116;2023-08-06T08:49:49;97714.59;;;18.63;90.56
18509;BME280;9383;50.928;12.116;2023-08-06T08:52:25;97713.25;;;18.79;90.24
18509;BME280;9383;50.928;12.116;2023-08-06T08:54:57;97708.63;;;18.91;89.53
18509;BME280;9383;50.928;12.116;2023-08-06T08:57:32;97713.06;;;19.02;88.38
18509;BME280;9383;50.928;12.116;2023-08-06T09:00:03;97707.13;;;19.08;86.79
18509;BME280;9383;50.928;12.116;2023-08-06T09:02:37;97704.72;;;19.15;85.69
18509;BME280;9383;50.928;12.116;2023-08-06T09:05:14;97707.72;;;19.21;85.22
18509;BME280;9383;50.928;12.116;2023-08-06T09:07:44;97710.72;;;19.28;84.73
18509;BME280;9383;50.928;12.116;2023-08-06T09:10:17;97711.69;;;19.37;84.89
18509;BME280;9383;50.928;12.116;2023-08-06T09:12:50;97720.88;;;19.44;84.00
18509;BME280;9383;50.928;12.116;2023-08-06T09:15:24;97714.69;;;19.44;81.18
18509;BME280;9383;50.928;12.116;2023-08-06T09:17:57;97713.97;;;19.42;80.95
18509;BME280;9383;50.928;12.116;2023-08-06T09:20:34;97719.19;;;19.43;81.38
18509;BME280;9383;50.928;12.116;2023-08-06T09:23:09;97710.13;;;19.44;80.85
18509;BME280;9383;50.928;12.116;2023-08-06T09:25:41;97713.53;;;19.46;80.97
18509;BME280;9383;50.928;12.116;2023-08-06T09:28:11;97713.28;;;19.49;81.03
18509;BME280;9383;50.928;12.116;2023-08-06T09:30:41;97702.22;;;19.52;81.33
18509;BME280;9383;50.928;12.116;2023-08-06T09:33:19;97698.25;;;19.57;81.04
18509;BME280;9383;50.928;12.116;2023-08-06T09:35:52;97691.88;;;19.58;79.97
18509;BME280;9383;50.928;12.116;2023-08-06T09:38:21;97690.19;;;19.57;79.46
18509;BME280;9383;50.928;12.116;2023-08-06T09:40:49;97689.94;;;19.60;79.85
18509;BME280;9383;50.928;12.116;2023-08-06T09:43:19;97688.66;;;19.64;79.72
18509;BME280;9383;50.928;12.116;2023-08-06T09:45:48;97682.56;;;19.72;80.33
18509;BME280;9383;50.928;12.116;2023-08-06T09:48:18;97688.06;;;19.80;80.96
18509;BME280;9383;50.928;12.116;2023-08-06T09:50:52;97688.34;;;19.87;80.26
18509;BME280;9383;50.928;12.116;2023-08-06T09:53:23;97686.66;;;19.95;80.43
18509;BME280;9383;50.928;12.116;2023-08-06T09:55:51;97675.59;;;19.99;79.53
18509;BME280;9383;50.928;12.116;2023-08-06T09:58:23;97672.63;;;20.02;79.05
18509;BME280;9383;50.928;12.116;2023-08-06T10:00:59;97673.19;;;20.05;77.78
18509;BME280;9383;50.928;12.116;2023-08-06T10:03:31;97669.06;;;20.11;77.66
18509;BME280;9383;50.928;12.116;2023-08-06T10:06:01;97667.31;;;20.20;78.23
18509;BME280;9383;50.928;12.116;2023-08-06T10:08:39;97666.16;;;20.32;78.30
18509;BME280;9383;50.928;12.116;2023-08-06T10:11:17;97659.19;;;20.40;76.83
18509;BME280;9383;50.928;12.116;2023-08-06T10:14:02;97652.50;;;20.44;74.86
18509;BME280;9383;50.928;12.116;2023-08-06T10:16:37;97655.16;;;20.53;75.49
18509;BME280;9383;50.928;12.116;2023-08-06T10:19:09;97656.66;;;20.66;75.32
18509;BME280;9383;50.928;12.116;2023-08-06T10:21:41;97643.84;;;20.78;75.66
18509;BME280;9383;50.928;12.116;2023-08-06T10:24:14;97643.66;;;20.89;75.04
18509;BME280;9383;50.928;12.116;2023-08-06T10:26:49;97641.53;;;20.93;72.85
18509;BME280;9383;50.928;12.116;2023-08-06T10:29:38;97567.41;;;20.61;72.66
18509;BME280;9383;50.928;12.116;2023-08-06T10:32:11;97641.81;;;21.08;72.62
18509;BME280;9383;50.928;12.116;2023-08-06T10:34:54;97628.13;;;21.19;72.63
18509;BME280;9383;50.928;12.116;2023-08-06T10:37:37;97624.66;;;21.27;71.63
18509;BME280;9383;50.928;12.116;2023-08-06T10:40:09;97618.50;;;21.35;71.78
18509;BME280;9383;50.928;12.116;2023-08-06T10:42:40;97616.50;;;21.37;69.29
18509;BME280;9383;50.928;12.116;2023-08-06T10:47:47;97608.03;;;21.32;69.67
18509;BME280;9383;50.928;12.116;2023-08-06T10:50:25;97603.72;;;21.39;70.14
18509;BME280;9383;50.928;12.116;2023-08-06T10:52:53;97614.53;;;21.47;69.88
18509;BME280;9383;50.928;12.116;2023-08-06T10:55:27;97602.16;;;21.55;69.83
18509;BME280;9383;50.928;12.116;2023-08-06T10:58:02;97602.22;;;21.63;69.69
18509;BME280;9383;50.928;12.116;2023-08-06T11:00:37;97592.84;;;21.67;67.78
18509;BME280;9383;50.928;12.116;2023-08-06T11:03:10;97582.88;;;21.68;67.67
18509;BME280;9383;50.928;12.116;2023-08-06T11:05:51;97584.41;;;21.70;68.13
18509;BME280;9383;50.928;12.116;2023-08-06T11:08:28;97581.09;;;21.76;68.47
18509;BME280;9383;50.928;12.116;2023-08-06T11:11:11;97582.81;;;21.86;69.32
18509;BME280;9383;50.928;12.116;2023-08-06T11:13:44;97568.56;;;21.94;69.05
18509;BME280;9383;50.928;12.116;2023-08-06T11:16:24;97572.44;;;21.99;69.07
18509;BME280;9383;50.928;12.116;2023-08-06T11:18:58;97561.38;;;22.11;69.29
18509;BME280;9383;50.928;12.116;2023-08-06T11:21:31;97562.78;;;22.23;69.44
18509;BME280;9383;50.928;12.116;2023-08-06T11:24:05;97560.44;;;22.28;68.28
18509;BME280;9383;50.928;12.116;2023-08-06T11:26:33;97562.13;;;22.29;67.81
18509;BME280;9383;50.928;12.116;2023-08-06T11:29:12;97553.84;;;22.31;66.42
18509;BME280;9383;50.928;12.116;2023-08-06T11:31:45;97549.84;;;22.35;65.69
18509;BME280;9383;50.928;12.116;2023-08-06T11:34:19;97552.06;;;22.40;64.02
18509;BME280;9383;50.928;12.116;2023-08-06T11:36:52;97540.88;;;22.34;59.14
18509;BME280;9383;50.928;12.116;2023-08-06T11:39:22;97542.06;;;22.32;59.04
18509;BME280;9383;50.928;12.116;2023-08-06T11:41:54;97548.25;;;22.24;56.29
18509;BME280;9383;50.928;12.116;2023-08-06T11:44:36;97549.47;;;22.22;58.42
18509;BME280;9383;50.928;12.116;2023-08-06T11:47:05;97537.31;;;22.26;59.49
18509;BME280;9383;50.928;12.116;2023-08-06T11:49:47;97538.84;;;22.37;59.70
18509;BME280;9383;50.928;12.116;2023-08-06T11:52:23;97528.97;;;22.45;58.78
18509;BME280;9383;50.928;12.116;2023-08-06T11:55:08;97524.06;;;22.49;56.73
18509;BME280;9383;50.928;12.116;2023-08-06T11:57:45;97533.50;;;22.45;59.40
18509;BME280;9383;50.928;12.116;2023-08-06T12:00:16;97524.59;;;22.53;60.81
18509;BME280;9383;50.928;12.116;2023-08-06T12:02:52;97526.84;;;22.66;62.07
18509;BME280;9383;50.928;12.116;2023-08-06T12:05:31;97524.13;;;22.66;60.67
18509;BME280;9383;50.928;12.116;2023-08-06T12:08:05;97530.19;;;22.51;60.97
18509;BME280;9383;50.928;12.116;2023-08-06T12:10:43;97525.88;;;22.40;60.57
18509;BME280;9383;50.928;12.116;2023-08-06T12:13:15;97527.22;;;22.36;61.55
18509;BME280;9383;50.928;12.116;2023-08-06T12:15:45;97524.88;;;22.33;60.44
18509;BME280;9383;50.928;12.116;2023-08-06T12:18:21;97528.00;;;22.20;61.27
18509;BME280;9383;50.928;12.116;2023-08-06T12:20:58;97530.38;;;22.15;62.15
18509;BME280;9383;50.928;12.116;2023-08-06T12:23:30;97537.41;;;22.08;61.61
18509;BME280;9383;50.928;12.116;2023-08-06T12:26:09;97541.13;;;22.06;62.69
18509;BME280;9383;50.928;12.116;2023-08-06T12:28:42;97533.69;;;22.09;60.63
18509;BME280;9383;50.928;12.116;2023-08-06T12:31:17;97539.09;;;22.09;58.97
18509;BME280;9383;50.928;12.116;2023-08-06T12:33:53;97537.22;;;22.01;54.60
18509;BME280;9383;50.928;12.116;2023-08-06T12:36:29;97546.78;;;21.87;53.21
18509;BME280;9383;50.928;12.116;2023-08-06T12:38:58;97540.59;;;21.68;55.92
18509;BME280;9383;50.928;12.116;2023-08-06T12:41:25;97539.06;;;21.47;58.23
18509;BME280;9383;50.928;12.116;2023-08-06T12:43:59;97541.97;;;21.28;60.08
18509;BME280;9383;50.928;12.116;2023-08-06T12:46:32;97535.97;;;21.16;61.91
18509;BME280;9383;50.928;12.116;2023-08-06T12:49:04;97532.22;;;21.08;62.76
18509;BME280;9383;50.928;12.116;2023-08-06T12:51:37;97536.38;;;21.03;64.02
18509;BME280;9383;50.928;12.116;2023-08-06T12:54:12;97534.16;;;20.98;66.64
18509;BME280;9383;50.928;12.116;2023-08-06T12:56:47;97526.66;;;20.92;68.07
18509;BME280;9383;50.928;12.116;2023-08-06T12:59:25;97526.16;;;20.88;68.25
18509;BME280;9383;50.928;12.116;2023-08-06T13:01:54;97516.38;;;20.87;68.98
18509;BME280;9383;50.928;12.116;2023-08-06T13:04:31;97510.13;;;20.87;68.75
18509;BME280;9383;50.928;12.116;2023-08-06T13:07:16;97517.38;;;20.86;69.38
18509;BME280;9383;50.928;12.116;2023-08-06T13:09:49;97509.59;;;20.83;69.93
18509;BME280;9383;50.928;12.116;2023-08-06T13:12:28;97515.97;;;20.82;70.80
18509;BME280;9383;50.928;12.116;2023-08-06T13:15:02;97504.22;;;20.83;70.46
18509;BME280;9383;50.928;12.116;2023-08-06T13:17:35;97506.06;;;20.83;70.61
18509;BME280;9383;50.928;12.116;2023-08-06T13:20:03;97500.50;;;20.84;71.51
18509;BME280;9383;50.928;12.116;2023-08-06T13:22:35;97502.38;;;20.84;72.12
18509;BME280;9383;50.928;12.116;2023-08-06T13:25:11;97495.97;;;20.85;72.94
18509;BME280;9383;50.928;12.116;2023-08-06T13:27:42;97484.91;;;20.88;73.71
18509;BME280;9383;50.928;12.116;2023-08-06T13:30:15;97489.13;;;20.90;73.13
18509;BME280;9383;50.928;12.116;2023-08-06T13:32:51;97487.28;;;20.91;72.86
18509;BME280;9383;50.928;12.116;2023-08-06T13:35:24;97501.75;;;20.90;72.88